CheckWX is a tool to help pilots better visualize weather data.  It is not intended as a substitute for an official pre-flight weather briefing.

15:09:06 UTC

LGSR METAR
Santorini Airport
Santorini Island, Greece
Current

19 mins ago

LGSR 101450Z 36018KT CAVOK 27/18 Q1011
Observed
Jul-10 @ 14:50 UTC
Wind
  • 360° at 18 KTS
Visibility
10,000+ meters
Flight Rules
VFR
Cloud Levels
  • Clear skies
Temperature
27°C / 81°F
Dewpoint
18°C / 64°F
Humidity
58%
Altimeter
29.85" Hg
Pressure
1010.92 hPa
Previous

49 mins ago

LGSR 101420Z 35018KT CAVOK 27/18 Q1011
Observed
Jul-10 @ 14:20 UTC
Wind
  • 350° at 18 KTS
Visibility
10,000+ meters
Flight Rules
VFR
Cloud Levels
  • Clear skies
Temperature
27°C / 81°F
Dewpoint
18°C / 64°F
Humidity
58%
Altimeter
29.85" Hg
Pressure
1010.92 hPa
Previous

1 hour ago

LGSR 101350Z 35018KT CAVOK 27/18 Q1011
Observed
Jul-10 @ 13:50 UTC
Wind
  • 350° at 18 KTS
Visibility
10,000+ meters
Flight Rules
VFR
Cloud Levels
  • Clear skies
Temperature
27°C / 81°F
Dewpoint
18°C / 64°F
Humidity
58%
Altimeter
29.85" Hg
Pressure
1010.92 hPa